sensor_id;sensor_type;location;lat;lon;timestamp;temperature;humidity
35129;DHT22;21301;43.626;10.580;2022-12-07T00:01:16;13.00;99.90
35129;DHT22;21301;43.626;10.580;2022-12-07T00:03:44;13.00;99.90
35129;DHT22;21301;43.626;10.580;2022-12-07T00:06:11;13.10;99.90
35129;DHT22;21301;43.626;10.580;2022-12-07T00:08:37;13.10;99.90
35129;DHT22;21301;43.626;10.580;2022-12-07T00:11:12;13.10;99.90
35129;DHT22;21301;43.626;10.580;2022-12-07T00:13:38;13.10;99.90
35129;DHT22;21301;43.626;10.580;2022-12-07T00:16:10;13.00;99.90
35129;DHT22;21301;43.626;10.580;2022-12-07T00:18:36;12.80;99.90
35129;DHT22;21301;43.626;10.580;2022-12-07T00:21:05;12.80;99.90
35129;DHT22;21301;43.626;10.580;2022-12-07T00:23:32;12.80;99.90
35129;DHT22;21301;43.626;10.580;2022-12-07T00:28:38;12.70;99.90
35129;DHT22;21301;43.626;10.580;2022-12-07T00:31:12;12.70;99.90
35129;DHT22;21301;43.626;10.580;2022-12-07T00:33:38;12.80;99.90
35129;DHT22;21301;43.626;10.580;2022-12-07T00:36:08;12.70;99.90
35129;DHT22;21301;43.626;10.580;2022-12-07T00:38:35;12.60;99.90
35129;DHT22;21301;43.626;10.580;2022-12-07T00:41:07;12.60;99.90
35129;DHT22;21301;43.626;10.580;2022-12-07T00:43:34;12.60;99.90
35129;DHT22;21301;43.626;10.580;2022-12-07T00:46:00;12.60;99.90
35129;DHT22;21301;43.626;10.580;2022-12-07T00:48:26;12.60;99.90
35129;DHT22;21301;43.626;10.580;2022-12-07T00:50:52;12.70;99.90
35129;DHT22;21301;43.626;10.580;2022-12-07T00:53:18;12.70;99.90
35129;DHT22;21301;43.626;10.580;2022-12-07T00:55:44;12.70;99.90
35129;DHT22;21301;43.626;10.580;2022-12-07T00:58:10;12.70;99.90
35129;DHT22;21301;43.626;10.580;2022-12-07T01:00:38;12.70;99.90
35129;DHT22;21301;43.626;10.580;2022-12-07T01:03:05;12.70;99.90
35129;DHT22;21301;43.626;10.580;2022-12-07T01:05:31;12.70;99.90
35129;DHT22;21301;43.626;10.580;2022-12-07T01:07:57;12.70;99.90
35129;DHT22;21301;43.626;10.580;2022-12-07T01:10:23;12.80;99.90
35129;DHT22;21301;43.626;10.580;2022-12-07T01:12:49;12.90;99.90
35129;DHT22;21301;43.626;10.580;2022-12-07T01:15:15;12.70;99.90
35129;DHT22;21301;43.626;10.580;2022-12-07T01:17:41;12.70;99.90
35129;DHT22;21301;43.626;10.580;2022-12-07T01:20:07;12.80;99.90
35129;DHT22;21301;43.626;10.580;2022-12-07T01:22:38;12.80;99.90
35129;DHT22;21301;43.626;10.580;2022-12-07T01:25:05;12.80;99.90
35129;DHT22;21301;43.626;10.580;2022-12-07T01:27:32;12.80;99.90
35129;DHT22;21301;43.626;10.580;2022-12-07T01:29:58;12.80;99.90
35129;DHT22;21301;43.626;10.580;2022-12-07T01:32:24;12.80;99.90
35129;DHT22;21301;43.626;10.580;2022-12-07T01:34:50;12.80;99.90
35129;DHT22;21301;43.626;10.580;2022-12-07T01:37:16;12.80;99.90
35129;DHT22;21301;43.626;10.580;2022-12-07T01:39:42;12.80;99.90
35129;DHT22;21301;43.626;10.580;2022-12-07T01:42:11;12.80;99.90
35129;DHT22;21301;43.626;10.580;2022-12-07T01:47:41;12.80;99.90
35129;DHT22;21301;43.626;10.580;2022-12-07T01:50:08;12.90;99.90
35129;DHT22;21301;43.626;10.580;2022-12-07T01:52:35;12.90;99.90
35129;DHT22;21301;43.626;10.580;2022-12-07T01:55:12;12.90;99.90
35129;DHT22;21301;43.626;10.580;2022-12-07T01:57:42;12.90;99.90
35129;DHT22;21301;43.626;10.580;2022-12-07T02:00:10;12.80;99.90
35129;DHT22;21301;43.626;10.580;2022-12-07T02:02:45;12.70;99.90
35129;DHT22;21301;43.626;10.580;2022-12-07T02:05:12;12.80;99.90
35129;DHT22;21301;43.626;10.580;2022-12-07T02:07:39;12.70;99.90
35129;DHT22;21301;43.626;10.580;2022-12-07T02:10:21;12.70;99.90
35129;DHT22;21301;43.626;10.580;2022-12-07T02:12:54;12.50;99.90
35129;DHT22;21301;43.626;10.580;2022-12-07T02:15:22;12.60;99.90
35129;DHT22;21301;43.626;10.580;2022-12-07T02:20:39;12.70;99.90
35129;DHT22;21301;43.626;10.580;2022-12-07T02:29:14;12.50;99.90
35129;DHT22;21301;43.626;10.580;2022-12-07T02:31:55;12.40;99.90
35129;DHT22;21301;43.626;10.580;2022-12-07T02:34:26;12.50;99.90
35129;DHT22;21301;43.626;10.580;2022-12-07T02:36:57;12.60;99.90
35129;DHT22;21301;43.626;10.580;2022-12-07T02:39:38;12.50;99.90
35129;DHT22;21301;43.626;10.580;2022-12-07T02:42:14;12.50;99.90
35129;DHT22;21301;43.626;10.580;2022-12-07T02:44:41;12.40;99.90
35129;DHT22;21301;43.626;10.580;2022-12-07T02:47:10;12.30;99.90
35129;DHT22;21301;43.626;10.580;2022-12-07T02:49:37;12.20;99.90
35129;DHT22;21301;43.626;10.580;2022-12-07T02:52:04;12.30;99.90
35129;DHT22;21301;43.626;10.580;2022-12-07T02:54:30;12.10;99.90
35129;DHT22;21301;43.626;10.580;2022-12-07T02:56:58;12.10;99.90
35129;DHT22;21301;43.626;10.580;2022-12-07T03:05:31;12.30;99.90
35129;DHT22;21301;43.626;10.580;2022-12-07T03:08:05;12.40;99.90
35129;DHT22;21301;43.626;10.580;2022-12-07T03:10:48;12.50;99.90
35129;DHT22;21301;43.626;10.580;2022-12-07T03:16:05;12.50;99.90
35129;DHT22;21301;43.626;10.580;2022-12-07T03:18:42;12.60;99.90
35129;DHT22;21301;43.626;10.580;2022-12-07T03:21:13;12.60;99.90
35129;DHT22;21301;43.626;10.580;2022-12-07T03:23:42;12.60;99.90
35129;DHT22;21301;43.626;10.580;2022-12-07T03:26:10;12.70;99.90
35129;DHT22;21301;43.626;10.580;2022-12-07T03:28:45;12.70;99.90
35129;DHT22;21301;43.626;10.580;2022-12-07T03:31:22;12.70;99.90
35129;DHT22;21301;43.626;10.580;2022-12-07T03:34:06;12.80;99.90
35129;DHT22;21301;43.626;10.580;2022-12-07T03:36:57;12.80;99.90
35129;DHT22;21301;43.626;10.580;2022-12-07T03:42:23;12.70;99.90
35129;DHT22;21301;43.626;10.580;2022-12-07T03:44:50;12.70;99.90
35129;DHT22;21301;43.626;10.580;2022-12-07T03:47:29;12.70;99.90
35129;DHT22;21301;43.626;10.580;2022-12-07T03:52:44;12.60;99.90
35129;DHT22;21301;43.626;10.580;2022-12-07T03:55:29;12.60;99.90
35129;DHT22;21301;43.626;10.580;2022-12-07T03:58:06;12.60;99.90
35129;DHT22;21301;43.626;10.580;2022-12-07T04:00:33;12.50;99.90
35129;DHT22;21301;43.626;10.580;2022-12-07T04:02:59;12.50;99.90
35129;DHT22;21301;43.626;10.580;2022-12-07T04:05:24;12.50;99.90
35129;DHT22;21301;43.626;10.580;2022-12-07T04:07:50;12.50;99.90
35129;DHT22;21301;43.626;10.580;2022-12-07T04:10:16;12.50;99.90
35129;DHT22;21301;43.626;10.580;2022-12-07T04:12:42;12.50;99.90
35129;DHT22;21301;43.626;10.580;2022-12-07T04:15:08;12.40;99.90
35129;DHT22;21301;43.626;10.580;2022-12-07T04:17:35;12.50;99.90
35129;DHT22;21301;43.626;10.580;2022-12-07T04:20:00;12.50;99.90
35129;DHT22;21301;43.626;10.580;2022-12-07T04:22:26;12.50;99.90
35129;DHT22;21301;43.626;10.580;2022-12-07T04:24:52;12.40;99.90
35129;DHT22;21301;43.626;10.580;2022-12-07T04:27:18;12.40;99.90
35129;DHT22;21301;43.626;10.580;2022-12-07T04:29:44;12.50;99.90
35129;DHT22;21301;43.626;10.580;2022-12-07T04:32:09;12.40;99.90
35129;DHT22;21301;43.626;10.580;2022-12-07T04:34:36;12.30;99.90
35129;DHT22;21301;43.626;10.580;2022-12-07T04:37:02;12.30;99.90
35129;DHT22;21301;43.626;10.580;2022-12-07T04:39:30;12.30;99.90
35129;DHT22;21301;43.626;10.580;2022-12-07T04:41:57;12.30;99.90
35129;DHT22;21301;43.626;10.580;2022-12-07T04:44:23;12.30;99.90
35129;DHT22;21301;43.626;10.580;2022-12-07T04:46:50;12.40;99.90
35129;DHT22;21301;43.626;10.580;2022-12-07T04:49:17;12.50;99.90
35129;DHT22;21301;43.626;10.580;2022-12-07T04:51:44;12.60;99.90
35129;DHT22;21301;43.626;10.580;2022-12-07T04:54:10;12.60;99.90
35129;DHT22;21301;43.626;10.580;2022-12-07T04:56:36;12.70;99.90
35129;DHT22;21301;43.626;10.580;2022-12-07T04:59:03;12.60;99.90
35129;DHT22;21301;43.626;10.580;2022-12-07T05:01:29;12.50;99.90
35129;DHT22;21301;43.626;10.580;2022-12-07T05:03:55;12.60;99.90
35129;DHT22;21301;43.626;10.580;2022-12-07T05:06:21;12.60;99.90
35129;DHT22;21301;43.626;10.580;2022-12-07T05:08:46;12.50;99.90
35129;DHT22;21301;43.626;10.580;2022-12-07T05:11:13;12.60;99.90
35129;DHT22;21301;43.626;10.580;2022-12-07T05:14:00;12.60;99.90
35129;DHT22;21301;43.626;10.580;2022-12-07T05:16:26;12.60;99.90
35129;DHT22;21301;43.626;10.580;2022-12-07T05:18:52;12.50;99.90
35129;DHT22;21301;43.626;10.580;2022-12-07T05:21:17;12.40;99.90
35129;DHT22;21301;43.626;10.580;2022-12-07T05:23:43;12.50;99.90
35129;DHT22;21301;43.626;10.580;2022-12-07T05:26:09;12.70;99.90
35129;DHT22;21301;43.626;10.580;2022-12-07T05:28:35;12.60;99.90
35129;DHT22;21301;43.626;10.580;2022-12-07T05:31:01;12.80;99.90
35129;DHT22;21301;43.626;10.580;2022-12-07T05:33:27;12.80;99.90
35129;DHT22;21301;43.626;10.580;2022-12-07T05:35:53;12.70;99.90
35129;DHT22;21301;43.626;10.580;2022-12-07T05:38:22;12.70;99.90
35129;DHT22;21301;43.626;10.580;2022-12-07T05:40:47;12.70;99.90
35129;DHT22;21301;43.626;10.580;2022-12-07T05:43:13;12.70;99.90
35129;DHT22;21301;43.626;10.580;2022-12-07T05:45:39;12.80;99.90
35129;DHT22;21301;43.626;10.580;2022-12-07T05:48:05;12.80;99.90
35129;DHT22;21301;43.626;10.580;2022-12-07T05:50:34;12.60;99.90
35129;DHT22;21301;43.626;10.580;2022-12-07T05:53:00;12.60;99.90
35129;DHT22;21301;43.626;10.580;2022-12-07T05:55:26;12.60;99.90
35129;DHT22;21301;43.626;10.580;2022-12-07T05:57:52;12.60;99.90
35129;DHT22;21301;43.626;10.580;2022-12-07T06:00:36;12.50;99.90
35129;DHT22;21301;43.626;10.580;2022-12-07T06:03:02;12.50;99.90
35129;DHT22;21301;43.626;10.580;2022-12-07T06:05:28;12.60;99.90
35129;DHT22;21301;43.626;10.580;2022-12-07T06:07:53;12.70;99.90
35129;DHT22;21301;43.626;10.580;2022-12-07T06:10:19;12.70;99.90
35129;DHT22;21301;43.626;10.580;2022-12-07T06:12:45;12.70;99.90
35129;DHT22;21301;43.626;10.580;2022-12-07T06:15:12;12.80;99.90
35129;DHT22;21301;43.626;10.580;2022-12-07T06:17:38;12.80;99.90
35129;DHT22;21301;43.626;10.580;2022-12-07T06:20:05;12.90;99.90
35129;DHT22;21301;43.626;10.580;2022-12-07T06:22:31;13.00;99.90
35129;DHT22;21301;43.626;10.580;2022-12-07T06:24:57;13.00;99.90
35129;DHT22;21301;43.626;10.580;2022-12-07T06:27:23;13.00;99.90
35129;DHT22;21301;43.626;10.580;2022-12-07T06:29:49;13.10;99.90
35129;DHT22;21301;43.626;10.580;2022-12-07T06:32:14;13.10;99.90
35129;DHT22;21301;43.626;10.580;2022-12-07T06:34:40;13.10;99.90
35129;DHT22;21301;43.626;10.580;2022-12-07T06:37:07;13.10;99.90
35129;DHT22;21301;43.626;10.580;2022-12-07T06:39:32;13.10;99.90
35129;DHT22;21301;43.626;10.580;2022-12-07T06:41:58;13.00;99.90
35129;DHT22;21301;43.626;10.580;2022-12-07T06:44:25;12.90;99.90
35129;DHT22;21301;43.626;10.580;2022-12-07T06:46:51;13.00;99.90
35129;DHT22;21301;43.626;10.580;2022-12-07T06:49:17;12.80;99.90
35129;DHT22;21301;43.626;10.580;2022-12-07T06:51:43;12.80;99.90
35129;DHT22;21301;43.626;10.580;2022-12-07T06:54:10;12.80;99.90
35129;DHT22;21301;43.626;10.580;2022-12-07T06:56:37;12.80;99.90
35129;DHT22;21301;43.626;10.580;2022-12-07T06:59:03;12.70;99.90
35129;DHT22;21301;43.626;10.580;2022-12-07T07:01:31;12.70;99.90
35129;DHT22;21301;43.626;10.580;2022-12-07T07:03:57;12.60;99.90
35129;DHT22;21301;43.626;10.580;2022-12-07T07:06:23;12.60;99.90
35129;DHT22;21301;43.626;10.580;2022-12-07T07:08:50;12.50;99.90
35129;DHT22;21301;43.626;10.580;2022-12-07T07:11:16;12.50;99.90
35129;DHT22;21301;43.626;10.580;2022-12-07T07:13:42;12.60;99.90
35129;DHT22;21301;43.626;10.580;2022-12-07T07:16:08;12.60;99.90
35129;DHT22;21301;43.626;10.580;2022-12-07T07:18:35;12.50;99.90
35129;DHT22;21301;43.626;10.580;2022-12-07T07:21:01;12.50;99.90
35129;DHT22;21301;43.626;10.580;2022-12-07T07:23:26;12.60;99.90
35129;DHT22;21301;43.626;10.580;2022-12-07T07:25:53;12.60;99.90
35129;DHT22;21301;43.626;10.580;2022-12-07T07:28:18;12.80;99.90
35129;DHT22;21301;43.626;10.580;2022-12-07T07:30:44;12.90;99.90
35129;DHT22;21301;43.626;10.580;2022-12-07T07:33:11;13.00;99.90
35129;DHT22;21301;43.626;10.580;2022-12-07T07:35:37;13.00;99.90
35129;DHT22;21301;43.626;10.580;2022-12-07T07:38:03;13.10;99.90
35129;DHT22;21301;43.626;10.580;2022-12-07T07:40:29;12.80;99.90
35129;DHT22;21301;43.626;10.580;2022-12-07T07:42:55;12.80;99.90
35129;DHT22;21301;43.626;10.580;2022-12-07T07:45:22;13.00;99.90
35129;DHT22;21301;43.626;10.580;2022-12-07T07:47:49;12.90;99.90
35129;DHT22;21301;43.626;10.580;2022-12-07T07:50:15;12.80;99.90
35129;DHT22;21301;43.626;10.580;2022-12-07T07:52:41;12.90;99.90
35129;DHT22;21301;43.626;10.580;2022-12-07T07:55:08;13.00;99.90
35129;DHT22;21301;43.626;10.580;2022-12-07T07:57:35;12.80;99.90
35129;DHT22;21301;43.626;10.580;2022-12-07T08:00:06;12.40;99.90
35129;DHT22;21301;43.626;10.580;2022-12-07T08:02:37;12.20;99.90
35129;DHT22;21301;43.626;10.580;2022-12-07T08:05:04;12.30;99.90
35129;DHT22;21301;43.626;10.580;2022-12-07T08:07:29;12.50;99.90
35129;DHT22;21301;43.626;10.580;2022-12-07T08:09:55;12.60;99.90
35129;DHT22;21301;43.626;10.580;2022-12-07T08:12:21;12.60;99.90
35129;DHT22;21301;43.626;10.580;2022-12-07T08:14:47;12.70;99.90
35129;DHT22;21301;43.626;10.580;2022-12-07T08:17:13;12.70;99.90
35129;DHT22;21301;43.626;10.580;2022-12-07T08:19:39;12.90;99.90
35129;DHT22;21301;43.626;10.580;2022-12-07T08:22:05;13.00;99.90
35129;DHT22;21301;43.626;10.580;2022-12-07T08:24:33;13.00;99.90
35129;DHT22;21301;43.626;10.580;2022-12-07T08:26:59;13.10;99.90
35129;DHT22;21301;43.626;10.580;2022-12-07T08:29:25;13.00;99.90
35129;DHT22;21301;43.626;10.580;2022-12-07T08:31:51;13.10;99.90
35129;DHT22;21301;43.626;10.580;2022-12-07T08:34:16;13.00;99.90
35129;DHT22;21301;43.626;10.580;2022-12-07T08:36:42;12.90;99.90
35129;DHT22;21301;43.626;10.580;2022-12-07T08:39:08;12.80;99.90
35129;DHT22;21301;43.626;10.580;2022-12-07T08:41:34;13.00;99.90
35129;DHT22;21301;43.626;10.580;2022-12-07T08:44:00;13.00;99.90
35129;DHT22;21301;43.626;10.580;2022-12-07T08:46:39;13.20;99.90
35129;DHT22;21301;43.626;10.580;2022-12-07T08:49:14;13.60;99.90
35129;DHT22;21301;43.626;10.580;2022-12-07T08:51:42;14.40;99.90
35129;DHT22;21301;43.626;10.580;2022-12-07T08:54:11;14.90;99.90
35129;DHT22;21301;43.626;10.580;2022-12-07T08:56:38;15.10;99.90
35129;DHT22;21301;43.626;10.580;2022-12-07T08:59:05;15.30;99.90
35129;DHT22;21301;43.626;10.580;2022-12-07T09:01:32;14.80;99.90
35129;DHT22;21301;43.626;10.580;2022-12-07T09:03:58;14.50;99.90
35129;DHT22;21301;43.626;10.580;2022-12-07T09:06:24;14.40;99.90
35129;DHT22;21301;43.626;10.580;2022-12-07T09:08:54;14.70;99.90
35129;DHT22;21301;43.626;10.580;2022-12-07T09:11:21;14.70;99.90
35129;DHT22;21301;43.626;10.580;2022-12-07T09:13:46;14.90;99.90
35129;DHT22;21301;43.626;10.580;2022-12-07T09:16:12;15.10;99.90
35129;DHT22;21301;43.626;10.580;2022-12-07T09:18:38;15.30;99.90
35129;DHT22;21301;43.626;10.580;2022-12-07T09:21:04;15.30;99.90
35129;DHT22;21301;43.626;10.580;2022-12-07T09:23:30;15.60;99.90
35129;DHT22;21301;43.626;10.580;2022-12-07T09:26:01;15.20;99.90
35129;DHT22;21301;43.626;10.580;2022-12-07T09:28:27;15.50;99.90
35129;DHT22;21301;43.626;10.580;2022-12-07T09:30:52;15.70;99.90
35129;DHT22;21301;43.626;10.580;2022-12-07T09:33:18;15.80;99.90
35129;DHT22;21301;43.626;10.580;2022-12-07T09:35:48;15.80;99.90
35129;DHT22;21301;43.626;10.580;2022-12-07T09:38:14;15.90;99.90
35129;DHT22;21301;43.626;10.580;2022-12-07T09:40:41;15.80;99.90
35129;DHT22;21301;43.626;10.580;2022-12-07T09:43:18;15.40;99.90
35129;DHT22;21301;43.626;10.580;2022-12-07T09:45:47;15.20;99.90
35129;DHT22;21301;43.626;10.580;2022-12-07T09:48:32;15.30;99.90
35129;DHT22;21301;43.626;10.580;2022-12-07T09:50:59;15.40;99.90
35129;DHT22;21301;43.626;10.580;2022-12-07T09:53:30;15.30;99.90
35129;DHT22;21301;43.626;10.580;2022-12-07T09:55:59;15.10;99.90
35129;DHT22;21301;43.626;10.580;2022-12-07T09:58:27;15.10;99.90
35129;DHT22;21301;43.626;10.580;2022-12-07T10:01:05;15.00;99.90
35129;DHT22;21301;43.626;10.580;2022-12-07T10:03:38;14.90;99.90
35129;DHT22;21301;43.626;10.580;2022-12-07T10:06:05;15.40;99.90
35129;DHT22;21301;43.626;10.580;2022-12-07T10:08:32;15.00;99.90
35129;DHT22;21301;43.626;10.580;2022-12-07T10:10:59;15.10;99.90
35129;DHT22;21301;43.626;10.580;2022-12-07T10:13:41;14.50;99.90
35129;DHT22;21301;43.626;10.580;2022-12-07T10:16:32;14.80;99.90
35129;DHT22;21301;43.626;10.580;2022-12-07T10:19:18;14.70;99.90
35129;DHT22;21301;43.626;10.580;2022-12-07T10:24:25;14.90;99.90
35129;DHT22;21301;43.626;10.580;2022-12-07T10:26:52;15.50;99.90
35129;DHT22;21301;43.626;10.580;2022-12-07T10:29:24;16.10;99.90
35129;DHT22;21301;43.626;10.580;2022-12-07T10:34:27;17.00;99.90
35129;DHT22;21301;43.626;10.580;2022-12-07T10:39:53;17.80;99.90
35129;DHT22;21301;43.626;10.580;2022-12-07T10:42:30;18.00;99.90
35129;DHT22;21301;43.626;10.580;2022-12-07T10:45:14;18.10;99.90
35129;DHT22;21301;43.626;10.580;2022-12-07T10:51:02;18.20;99.90
35129;DHT22;21301;43.626;10.580;2022-12-07T11:01:38;18.10;99.90
35129;DHT22;21301;43.626;10.580;2022-12-07T11:04:18;18.20;99.90
35129;DHT22;21301;43.626;10.580;2022-12-07T11:07:04;18.20;99.90
35129;DHT22;21301;43.626;10.580;2022-12-07T11:12:26;18.90;99.90
35129;DHT22;21301;43.626;10.580;2022-12-07T11:20:53;19.70;99.90
35129;DHT22;21301;43.626;10.580;2022-12-07T11:23:42;19.40;99.90
35129;DHT22;21301;43.626;10.580;2022-12-07T11:34:15;18.50;99.90
35129;DHT22;21301;43.626;10.580;2022-12-07T11:36:52;18.70;99.90
35129;DHT22;21301;43.626;10.580;2022-12-07T11:41:52;18.60;99.90
35129;DHT22;21301;43.626;10.580;2022-12-07T11:46:57;19.20;99.90
35129;DHT22;21301;43.626;10.580;2022-12-07T11:49:33;19.10;99.90
35129;DHT22;21301;43.626;10.580;2022-12-07T11:52:04;19.20;99.90
35129;DHT22;21301;43.626;10.580;2022-12-07T11:54:39;19.20;99.90
35129;DHT22;21301;43.626;10.580;2022-12-07T11:57:14;19.00;99.90
35129;DHT22;21301;43.626;10.580;2022-12-07T12:00:18;18.80;99.90
35129;DHT22;21301;43.626;10.580;2022-12-07T12:02:43;18.50;99.90
35129;DHT22;21301;43.626;10.580;2022-12-07T12:05:18;18.40;99.90
35129;DHT22;21301;43.626;10.580;2022-12-07T12:07:52;18.30;99.90
35129;DHT22;21301;43.626;10.580;2022-12-07T12:10:39;18.10;99.90
35129;DHT22;21301;43.626;10.580;2022-12-07T12:15:57;17.60;99.90
35129;DHT22;21301;43.626;10.580;2022-12-07T12:21:28;17.40;99.90
35129;DHT22;21301;43.626;10.580;2022-12-07T12:24:17;17.40;99.90
35129;DHT22;21301;43.626;10.580;2022-12-07T12:27:17;17.40;99.90
35129;DHT22;21301;43.626;10.580;2022-12-07T12:29:40;17.50;99.90
35129;DHT22;21301;43.626;10.580;2022-12-07T12:32:22;17.60;99.90
35129;DHT22;21301;43.626;10.580;2022-12-07T12:35:26;17.20;99.90
35129;DHT22;21301;43.626;10.580;2022-12-07T12:37:53;17.20;99.90
35129;DHT22;21301;43.626;10.580;2022-12-07T12:42:55;17.10;99.90
35129;DHT22;21301;43.626;10.580;2022-12-07T12:45:27;16.70;99.90
35129;DHT22;21301;43.626;10.580;2022-12-07T12:48:01;16.50;99.90
35129;DHT22;21301;43.626;10.580;2022-12-07T12:50:37;16.40;99.90
35129;DHT22;21301;43.626;10.580;2022-12-07T12:53:24;16.30;99.90
35129;DHT22;21301;43.626;10.580;2022-12-07T12:58:42;16.20;99.90
35129;DHT22;21301;43.626;10.580;2022-12-07T13:01:39;16.20;99.90
35129;DHT22;21301;43.626;10.580;2022-12-07T13:04:39;16.20;99.90
35129;DHT22;21301;43.626;10.580;2022-12-07T13:07:11;16.40;99.90
35129;DHT22;21301;43.626;10.580;2022-12-07T13:09:42;16.40;99.90
35129;DHT22;21301;43.626;10.580;2022-12-07T13:12:14;16.30;99.90
35129;DHT22;21301;43.626;10.580;2022-12-07T13:14:57;16.40;99.90
35129;DHT22;21301;43.626;10.580;2022-12-07T13:20:05;16.60;99.90
35129;DHT22;21301;43.626;10.580;2022-12-07T13:25:07;16.40;99.90
35129;DHT22;21301;43.626;10.580;2022-12-07T13:27:37;16.40;99.90
35129;DHT22;21301;43.626;10.580;2022-12-07T13:30:17;16.30;99.90
35129;DHT22;21301;43.626;10.580;2022-12-07T13:32:52;16.20;99.90
35129;DHT22;21301;43.626;10.580;2022-12-07T13:35:35;16.20;99.90
35129;DHT22;21301;43.626;10.580;2022-12-07T13:38:19;16.20;99.90
35129;DHT22;21301;43.626;10.580;2022-12-07T13:43:30;16.00;99.90
35129;DHT22;21301;43.626;10.580;2022-12-07T13:45:59;15.90;99.90
35129;DHT22;21301;43.626;10.580;2022-12-07T13:48:47;15.80;99.90
35129;DHT22;21301;43.626;10.580;2022-12-07T13:51:20;15.80;99.90
35129;DHT22;21301;43.626;10.580;2022-12-07T13:53:48;15.80;99.90
35129;DHT22;21301;43.626;10.580;2022-12-07T13:56:14;15.70;99.90
35129;DHT22;21301;43.626;10.580;2022-12-07T13:58:41;15.70;99.90
35129;DHT22;21301;43.626;10.580;2022-12-07T14:01:07;15.70;99.90
35129;DHT22;21301;43.626;10.580;2022-12-07T14:03:35;15.80;99.90
35129;DHT22;21301;43.626;10.580;2022-12-07T14:06:19;16.00;99.90
35129;DHT22;21301;43.626;10.580;2022-12-07T14:08:46;16.10;99.90
35129;DHT22;21301;43.626;10.580;2022-12-07T14:11:18;15.80;99.90
35129;DHT22;21301;43.626;10.580;2022-12-07T14:13:59;15.70;99.90
35129;DHT22;21301;43.626;10.580;2022-12-07T14:18:57;15.60;99.90
35129;DHT22;21301;43.626;10.580;2022-12-07T14:21:26;15.60;99.90
35129;DHT22;21301;43.626;10.580;2022-12-07T14:24:17;15.80;99.90
35129;DHT22;21301;43.626;10.580;2022-12-07T14:26:46;15.80;99.90
35129;DHT22;21301;43.626;10.580;2022-12-07T14:29:29;15.80;99.90
35129;DHT22;21301;43.626;10.580;2022-12-07T14:31:57;15.90;99.90
35129;DHT22;21301;43.626;10.580;2022-12-07T14:34:24;16.10;99.90
35129;DHT22;21301;43.626;10.580;2022-12-07T14:36:50;16.20;99.90
35129;DHT22;21301;43.626;10.580;2022-12-07T14:39:16;16.20;99.90
35129;DHT22;21301;43.626;10.580;2022-12-07T14:41:42;16.20;99.90
35129;DHT22;21301;43.626;10.580;2022-12-07T14:44:23;16.20;99.90
35129;DHT22;21301;43.626;10.580;2022-12-07T14:46:50;15.90;99.90
35129;DHT22;21301;43.626;10.580;2022-12-07T14:49:16;15.90;99.90
35129;DHT22;21301;43.626;10.580;2022-12-07T14:51:45;15.90;99.90
35129;DHT22;21301;43.626;10.580;2022-12-07T14:54:19;15.90;99.90
35129;DHT22;21301;43.626;10.580;2022-12-07T14:56:46;15.80;99.90
35129;DHT22;21301;43.626;10.580;2022-12-07T14:59:17;15.80;99.90
35129;DHT22;21301;43.626;10.580;2022-12-07T15:01:44;15.80;99.90
35129;DHT22;21301;43.626;10.580;2022-12-07T15:04:10;15.70;99.90
35129;DHT22;21301;43.626;10.580;2022-12-07T15:06:36;15.80;99.90
35129;DHT22;21301;43.626;10.580;2022-12-07T15:09:02;15.80;99.90
35129;DHT22;21301;43.626;10.580;2022-12-07T15:11:28;15.90;99.90
35129;DHT22;21301;43.626;10.580;2022-12-07T15:13:54;15.80;99.90
35129;DHT22;21301;43.626;10.580;2022-12-07T15:16:38;15.70;99.90
35129;DHT22;21301;43.626;10.580;2022-12-07T15:19:19;15.50;99.90
35129;DHT22;21301;43.626;10.580;2022-12-07T15:21:48;15.30;99.90
35129;DHT22;21301;43.626;10.580;2022-12-07T15:24:14;15.30;99.90
35129;DHT22;21301;43.626;10.580;2022-12-07T15:26:40;15.00;99.90
35129;DHT22;21301;43.626;10.580;2022-12-07T15:29:06;14.80;99.90
35129;DHT22;21301;43.626;10.580;2022-12-07T15:31:33;14.70;99.90
35129;DHT22;21301;43.626;10.580;2022-12-07T15:34:00;14.80;99.90
35129;DHT22;21301;43.626;10.580;2022-12-07T15:36:28;14.70;99.90
35129;DHT22;21301;43.626;10.580;2022-12-07T15:38:55;14.60;99.90
35129;DHT22;21301;43.626;10.580;2022-12-07T15:41:21;14.50;99.90
35129;DHT22;21301;43.626;10.580;2022-12-07T15:43:47;14.40;99.90
35129;DHT22;21301;43.626;10.580;2022-12-07T15:46:39;14.30;99.90
35129;DHT22;21301;43.626;10.580;2022-12-07T15:49:13;14.40;99.90
35129;DHT22;21301;43.626;10.580;2022-12-07T15:51:41;14.40;99.90
35129;DHT22;21301;43.626;10.580;2022-12-07T15:54:19;14.30;99.90
35129;DHT22;21301;43.626;10.580;2022-12-07T15:56:45;14.00;99.90
35129;DHT22;21301;43.626;10.580;2022-12-07T15:59:11;13.80;99.90
35129;DHT22;21301;43.626;10.580;2022-12-07T16:01:37;13.90;99.90
35129;DHT22;21301;43.626;10.580;2022-12-07T16:04:03;14.00;99.90
35129;DHT22;21301;43.626;10.580;2022-12-07T16:06:29;14.00;99.90
35129;DHT22;21301;43.626;10.580;2022-12-07T16:08:55;13.80;99.90
35129;DHT22;21301;43.626;10.580;2022-12-07T16:11:21;13.30;99.90
35129;DHT22;21301;43.626;10.580;2022-12-07T16:13:47;13.10;99.90
35129;DHT22;21301;43.626;10.580;2022-12-07T16:16:15;13.10;99.90
35129;DHT22;21301;43.626;10.580;2022-12-07T16:18:45;13.10;99.90
35129;DHT22;21301;43.626;10.580;2022-12-07T16:21:12;13.30;99.90
35129;DHT22;21301;43.626;10.580;2022-12-07T16:23:38;13.50;99.90
35129;DHT22;21301;43.626;10.580;2022-12-07T16:26:10;13.60;99.90
35129;DHT22;21301;43.626;10.580;2022-12-07T16:28:36;13.70;99.90
35129;DHT22;21301;43.626;10.580;2022-12-07T16:31:07;13.60;99.90
35129;DHT22;21301;43.626;10.580;2022-12-07T16:33:34;13.50;99.90
35129;DHT22;21301;43.626;10.580;2022-12-07T16:36:01;13.30;99.90
35129;DHT22;21301;43.626;10.580;2022-12-07T16:38:27;13.00;99.90
35129;DHT22;21301;43.626;10.580;2022-12-07T16:40:53;12.90;99.90
35129;DHT22;21301;43.626;10.580;2022-12-07T16:43:19;13.10;99.90
35129;DHT22;21301;43.626;10.580;2022-12-07T16:45:46;13.30;99.90
35129;DHT22;21301;43.626;10.580;2022-12-07T16:48:14;13.10;99.90
35129;DHT22;21301;43.626;10.580;2022-12-07T16:50:41;13.20;99.90
35129;DHT22;21301;43.626;10.580;2022-12-07T16:53:11;13.10;99.90
35129;DHT22;21301;43.626;10.580;2022-12-07T16:55:38;13.00;99.90
35129;DHT22;21301;43.626;10.580;2022-12-07T16:58:05;13.00;99.90
35129;DHT22;21301;43.626;10.580;2022-12-07T17:00:31;12.70;99.90
35129;DHT22;21301;43.626;10.580;2022-12-07T17:02:57;12.30;99.90